Terminal Aerodrome Forecast
Issued by NWS

Home | Current Version | Previous Version | Text Only | Print | Product List | Glossary On
Versions: 1 2 3 4 5 6 7 8 9 10 11 12 13 14 15 16 17 18 19 20 21
000
FTUS46 KLOX 180500 RRA
TAFOXR
TAF
KOXR 180544Z 1806/1906 VRB03KT P6SM SCT080
     FM180900 VRB03KT P6SM VCSH SCT035 BKN070
     FM181800 24006KT P6SM SCT025 BKN050
     FM190200 VRB03KT P6SM SCT025 BKN050=

USA.gov is the U.S. government's official web portal to all federal, state and local government web resources and services.